createdAt,value
2023-02-21T00:02:38.553Z,97729.92
2023-02-21T00:06:05.507Z,97701.29
2023-02-21T00:08:52.796Z,97700.43
2023-02-21T00:11:41.412Z,97702.88
2023-02-21T00:14:53.770Z,97700.80
2023-02-21T00:17:46.894Z,97700.51
2023-02-21T00:24:52.198Z,97690.77
2023-02-21T00:27:46.766Z,97696.73
2023-02-21T00:30:46.700Z,97694.16
2023-02-21T00:33:37.864Z,97690.71
2023-02-21T00:36:28.832Z,97682.75
2023-02-21T00:39:44.408Z,97675.83
2023-02-21T00:43:03.906Z,97677.28
2023-02-21T00:46:00.290Z,97665.72
2023-02-21T00:53:01.647Z,97662.98
2023-02-21T00:56:06.160Z,97661.87
2023-02-21T01:03:49.990Z,97665.89
2023-02-21T01:06:42.749Z,97673.34
2023-02-21T01:09:48.511Z,97687.56
2023-02-21T01:12:47.133Z,97681.84
2023-02-21T01:15:52.481Z,97679.02
2023-02-21T01:18:40.376Z,97677.98
2023-02-21T01:25:05.478Z,97685.27
2023-02-21T01:28:36.934Z,97684.96
2023-02-21T01:31:50.504Z,97689.33
2023-02-21T01:34:46.803Z,97693.11
2023-02-21T01:37:48.302Z,97690.13
2023-02-21T01:40:44.587Z,97695.85
2023-02-21T01:43:53.691Z,97688.19
2023-02-21T01:46:41.512Z,97681.58
2023-02-21T01:49:36.521Z,97681.92
2023-02-21T01:52:41.866Z,97676.98
2023-02-21T01:55:51.493Z,97678.65
2023-02-21T01:58:40.813Z,97675.56
2023-02-21T02:02:06.468Z,97675.18
2023-02-21T02:04:59.803Z,97679.34
2023-02-21T02:07:58.170Z,97677.40
2023-02-21T02:10:47.957Z,97670.81
2023-02-21T02:13:56.832Z,97670.87
2023-02-21T02:17:18.884Z,97681.23
2023-02-21T02:20:29.537Z,97678.48
2023-02-21T02:23:20.115Z,97677.70
2023-02-21T02:26:19.867Z,97674.02
2023-02-21T02:29:21.920Z,97677.83
2023-02-21T02:31:53.509Z,97680.20
2023-02-21T02:34:50.430Z,97691.71
2023-02-21T02:37:58.856Z,97698.24
2023-02-21T02:40:37.154Z,97699.56
2023-02-21T02:43:42.946Z,97703.64
2023-02-21T02:50:02.950Z,97707.73
2023-02-21T02:52:55.989Z,97710.91
2023-02-21T02:55:44.071Z,97714.10
2023-02-21T02:58:19.317Z,97716.89
2023-02-21T03:01:46.665Z,97721.30
2023-02-21T03:05:16.636Z,97728.53
2023-02-21T03:08:25.777Z,97722.50
2023-02-21T03:11:05.401Z,97725.22
2023-02-21T03:13:50.022Z,97724.47
2023-02-21T03:16:46.133Z,97725.30
2023-02-21T03:19:36.224Z,97729.42
2023-02-21T03:22:21.960Z,97735.02
2023-02-21T03:24:56.075Z,97734.08
2023-02-21T03:27:34.148Z,97735.07
2023-02-21T03:30:55.185Z,97735.80
2023-02-21T03:33:32.848Z,97732.98
2023-02-21T03:36:03.970Z,97727.85
2023-02-21T03:40:09.909Z,97735.82
2023-02-21T03:42:46.518Z,97734.64
2023-02-21T03:45:23.033Z,97737.71
2023-02-21T03:48:45.541Z,97744.27
2023-02-21T03:51:31.353Z,97744.48
2023-02-21T03:54:13.814Z,97747.71
2023-02-21T03:57:30.614Z,97754.34
2023-02-21T04:00:16.362Z,97744.73
2023-02-21T04:03:02.472Z,97745.55
2023-02-21T04:05:50.790Z,97738.59
2023-02-21T04:08:33.897Z,97730.62
2023-02-21T04:11:10.718Z,97727.59
2023-02-21T04:13:49.534Z,97716.70
2023-02-21T04:19:41.686Z,97722.07
2023-02-21T04:22:18.930Z,97723.65
2023-02-21T04:24:50.139Z,97722.17
2023-02-21T04:27:28.701Z,97717.70
2023-02-21T04:30:28.133Z,97729.45
2023-02-21T04:33:48.303Z,97733.40
2023-02-21T04:36:31.042Z,97739.77
2023-02-21T04:39:10.889Z,97742.72
2023-02-21T04:41:42.363Z,97747.17
2023-02-21T04:44:26.772Z,97741.48
2023-02-21T04:47:40.688Z,97736.94
2023-02-21T04:50:27.311Z,97740.56
2023-02-21T04:53:24.445Z,97741.15
2023-02-21T04:56:14.127Z,97739.59
2023-02-21T04:58:46.194Z,97751.86
2023-02-21T05:01:20.775Z,97749.98
2023-02-21T05:03:57.499Z,97744.30
2023-02-21T05:06:48.432Z,97748.67
2023-02-21T05:09:22.212Z,97748.56
2023-02-21T05:12:29.377Z,97742.60
2023-02-21T05:15:11.494Z,97746.75
2023-02-21T05:17:45.684Z,97753.84
2023-02-21T05:20:15.330Z,97747.30
2023-02-21T05:22:49.470Z,97749.00
2023-02-21T05:25:20.257Z,97749.98
2023-02-21T05:27:54.160Z,97751.11
2023-02-21T05:30:26.208Z,97749.44
2023-02-21T05:33:04.670Z,97749.31
2023-02-21T05:35:34.560Z,97747.20
2023-02-21T05:38:08.184Z,97744.83
2023-02-21T05:40:44.750Z,97753.66
2023-02-21T05:43:27.444Z,97740.92
2023-02-21T05:46:02.580Z,97747.32
2023-02-21T05:48:33.309Z,97749.27
2023-02-21T05:51:05.167Z,97749.23
2023-02-21T05:53:39.286Z,97747.09
2023-02-21T05:57:48.247Z,97747.10
2023-02-21T06:00:29.144Z,97750.08
2023-02-21T06:03:09.132Z,97744.88
2023-02-21T06:05:40.155Z,97759.44
2023-02-21T06:08:13.990Z,97758.95
2023-02-21T06:10:44.695Z,97765.30
2023-02-21T06:13:13.582Z,97763.80
2023-02-21T06:15:43.663Z,97771.30
2023-02-21T06:18:16.647Z,97776.31
2023-02-21T06:20:51.764Z,97777.30
2023-02-21T06:23:21.269Z,97779.16
2023-02-21T06:25:51.093Z,97780.84
2023-02-21T06:28:20.662Z,97787.23
2023-02-21T06:30:52.991Z,97788.21
2023-02-21T06:33:26.091Z,97790.91
2023-02-21T06:36:13.987Z,97797.88
2023-02-21T06:38:48.284Z,97794.02
2023-02-21T06:41:24.751Z,97797.25
2023-02-21T06:43:56.870Z,97803.64
2023-02-21T06:46:28.395Z,97807.89
2023-02-21T06:49:00.143Z,97801.49
2023-02-21T06:51:31.379Z,97801.59
2023-02-21T06:54:01.713Z,97806.95
2023-02-21T06:56:31.929Z,97799.05
2023-02-21T06:59:07.169Z,97795.51
2023-02-21T07:01:46.049Z,97794.81
2023-02-21T07:04:17.295Z,97798.10
2023-02-21T07:06:47.472Z,97795.66
2023-02-21T07:09:16.763Z,97788.44
2023-02-21T07:11:48.796Z,97784.62
2023-02-21T07:14:21.725Z,97780.42
2023-02-21T07:16:56.642Z,97787.70
2023-02-21T07:19:30.592Z,97788.29
2023-02-21T07:22:13.469Z,97782.61
2023-02-21T07:24:42.272Z,97781.98
2023-02-21T07:27:10.814Z,97779.13
2023-02-21T07:29:41.371Z,97784.82
2023-02-21T07:32:12.149Z,97782.28
2023-02-21T07:34:40.688Z,97779.30
2023-02-21T07:37:09.434Z,97774.46
2023-02-21T07:39:49.166Z,97777.69
2023-02-21T07:42:20.275Z,97775.68
2023-02-21T07:44:49.364Z,97775.83
2023-02-21T07:47:23.512Z,97782.89
2023-02-21T07:49:55.350Z,97780.89
2023-02-21T07:52:28.012Z,97781.89
2023-02-21T07:54:57.010Z,97784.20
2023-02-21T07:57:26.107Z,97784.25
2023-02-21T07:59:54.795Z,97779.65
2023-02-21T08:02:32.392Z,97776.84
2023-02-21T08:05:06.860Z,97779.06
2023-02-21T08:07:48.632Z,97779.54
2023-02-21T08:10:24.672Z,97777.54
2023-02-21T08:12:57.655Z,97779.45
2023-02-21T08:15:26.644Z,97778.08
2023-02-21T08:18:00.252Z,97784.52
2023-02-21T08:20:29.758Z,97782.28
2023-02-21T08:23:01.718Z,97780.19
2023-02-21T08:25:34.493Z,97773.92
2023-02-21T08:28:08.987Z,97773.55
2023-02-21T08:30:39.604Z,97770.70
2023-02-21T08:33:10.196Z,97769.52
2023-02-21T08:35:39.067Z,97772.52
2023-02-21T08:38:11.047Z,97764.11
2023-02-21T08:40:41.900Z,97760.98
2023-02-21T08:43:10.553Z,97762.45
2023-02-21T08:45:40.472Z,97757.76
2023-02-21T08:48:09.054Z,97757.95
2023-02-21T08:50:37.766Z,97759.27
2023-02-21T08:53:07.042Z,97764.02
2023-02-21T08:55:36.753Z,97764.73
2023-02-21T08:58:07.487Z,97760.09
2023-02-21T09:00:38.136Z,97759.44
2023-02-21T09:03:47.254Z,97759.52
2023-02-21T09:06:37.859Z,97757.30
2023-02-21T09:09:31.141Z,97760.77
2023-02-21T09:12:34.527Z,97775.10
2023-02-21T09:15:35.767Z,97777.80
2023-02-21T09:18:30.361Z,97768.99
2023-02-21T09:21:03.255Z,97765.41
2023-02-21T09:24:16.903Z,97762.65
2023-02-21T09:27:09.026Z,97763.89
2023-02-21T09:30:05.341Z,97773.21
2023-02-21T09:33:22.888Z,97769.36
2023-02-21T09:36:38.071Z,97765.98
2023-02-21T09:39:41.678Z,97766.81
2023-02-21T09:42:53.703Z,97772.06
2023-02-21T09:46:18.785Z,97771.50
2023-02-21T09:49:32.431Z,97781.70
2023-02-21T09:52:08.794Z,97778.48
2023-02-21T09:54:57.653Z,97776.75
2023-02-21T09:58:15.719Z,97780.55
2023-02-21T10:00:54.633Z,97793.52
2023-02-21T10:04:37.712Z,97784.07
2023-02-21T10:07:38.388Z,97782.08
2023-02-21T10:10:10.759Z,97785.41
2023-02-21T10:13:23.283Z,97793.27
2023-02-21T10:17:18.802Z,97793.23
2023-02-21T10:20:59.375Z,97809.27
2023-02-21T10:24:05.739Z,97824.27
2023-02-21T10:27:12.497Z,97813.73
2023-02-21T10:30:16.079Z,97812.08
2023-02-21T10:33:17.375Z,97819.58
2023-02-21T10:35:47.553Z,97814.30
2023-02-21T10:38:58.025Z,97817.03
2023-02-21T10:41:35.146Z,97821.55
2023-02-21T10:45:31.855Z,97816.06
2023-02-21T10:48:50.651Z,97815.80
2023-02-21T10:52:23.622Z,97819.95
2023-02-21T10:55:47.981Z,97816.33
2023-02-21T10:58:38.827Z,97819.06
2023-02-21T11:01:39.241Z,97819.16
2023-02-21T11:05:08.279Z,97821.86
2023-02-21T11:08:17.421Z,97822.64
2023-02-21T11:11:43.702Z,97830.71
2023-02-21T11:15:05.935Z,97832.14
2023-02-21T11:17:43.452Z,97824.36
2023-02-21T11:21:02.922Z,97827.30
2023-02-21T11:24:07.065Z,97836.89
2023-02-21T11:27:16.142Z,97832.59
2023-02-21T11:30:11.932Z,97838.63
2023-02-21T11:33:41.107Z,97839.98
2023-02-21T11:37:04.992Z,97843.86
2023-02-21T11:40:20.884Z,97844.63
2023-02-21T11:43:52.839Z,97839.59
2023-02-21T11:46:48.181Z,97842.64
2023-02-21T11:50:05.255Z,97846.86
2023-02-21T11:53:02.093Z,97846.88
2023-02-21T11:56:00.510Z,97857.41
2023-02-21T11:59:20.711Z,97854.17
2023-02-21T12:02:38.639Z,97857.55
2023-02-21T12:06:11.657Z,97869.85
2023-02-21T12:09:58.138Z,97869.37
2023-02-21T12:12:51.863Z,97864.64
2023-02-21T12:16:06.785Z,97869.68
2023-02-21T12:18:48.393Z,97866.55
2023-02-21T12:22:05.661Z,97864.66
2023-02-21T12:25:15.981Z,97865.53
2023-02-21T12:29:01.786Z,97866.64
2023-02-21T12:32:11.698Z,97865.52
2023-02-21T12:35:36.957Z,97861.84
2023-02-21T12:38:49.392Z,97862.91
2023-02-21T12:42:41.437Z,97869.04
2023-02-21T12:46:26.189Z,97865.30
2023-02-21T12:49:17.364Z,97870.42
2023-02-21T12:52:49.400Z,97872.55
2023-02-21T12:55:33.950Z,97870.38
2023-02-21T12:59:39.718Z,97870.21
2023-02-21T13:02:51.012Z,97876.52
2023-02-21T13:06:16.928Z,97883.02
2023-02-21T13:10:03.635Z,97877.79
2023-02-21T13:13:05.732Z,97888.55
2023-02-21T13:15:55.238Z,97894.47
2023-02-21T13:19:05.585Z,97890.16
2023-02-21T13:22:36.502Z,97888.29
2023-02-21T13:25:37.858Z,97903.48
2023-02-21T13:28:28.554Z,97914.95
2023-02-21T13:39:36.763Z,97963.52
2023-02-21T13:42:26.138Z,97957.62
2023-02-21T13:45:41.163Z,97953.11
2023-02-21T13:48:26.825Z,97942.13
2023-02-21T13:51:55.624Z,97947.02
2023-02-21T13:54:51.442Z,97943.41
2023-02-21T13:57:37.778Z,97948.88
2023-02-21T14:01:35.383Z,97946.45
2023-02-21T14:04:58.894Z,97945.67
2023-02-21T14:08:12.029Z,97963.23
2023-02-21T14:11:04.351Z,97955.90
2023-02-21T14:14:09.704Z,97947.73
2023-02-21T14:17:09.012Z,97949.67
2023-02-21T14:24:18.095Z,97958.80
2023-02-21T14:27:18.041Z,97964.05
2023-02-21T14:30:21.419Z,97960.14
2023-02-21T14:33:25.926Z,97966.64
2023-02-21T14:36:16.932Z,97979.97
2023-02-21T14:38:54.793Z,97979.08
2023-02-21T14:42:20.813Z,97981.76
2023-02-21T14:45:30.800Z,97981.77
2023-02-21T14:48:20.305Z,97989.89
2023-02-21T14:51:20.923Z,97990.02
2023-02-21T14:54:37.514Z,97993.98
2023-02-21T14:57:54.870Z,97988.44
2023-02-21T15:00:54.843Z,98009.98
2023-02-21T15:03:29.140Z,98020.60
2023-02-21T15:06:12.835Z,98026.20
2023-02-21T15:08:53.324Z,98042.06
2023-02-21T15:11:34.072Z,98042.66
2023-02-21T15:14:25.654Z,98053.86
2023-02-21T15:20:10.846Z,98071.19
2023-02-21T15:22:46.337Z,98085.66
2023-02-21T15:25:21.257Z,98078.14
2023-02-21T15:28:05.295Z,98092.14
2023-02-21T15:30:43.464Z,98093.88
2023-02-21T15:33:21.584Z,98104.36
2023-02-21T15:36:06.089Z,98124.95
2023-02-21T15:38:52.942Z,98157.73
2023-02-21T15:42:04.321Z,98180.71
2023-02-21T15:44:48.759Z,98186.99
2023-02-21T15:47:22.559Z,98206.83
2023-02-21T15:50:16.959Z,98234.39
2023-02-21T15:53:29.211Z,98226.77
2023-02-21T15:56:42.859Z,98211.35
2023-02-21T15:59:50.436Z,98203.55
2023-02-21T16:02:27.737Z,98207.92
2023-02-21T16:05:30.623Z,98209.48
2023-02-21T16:08:35.449Z,98224.68
2023-02-21T16:11:19.577Z,98235.77
2023-02-21T16:14:04.638Z,98240.60
2023-02-21T16:17:27.726Z,98253.25
2023-02-21T16:20:33.382Z,98265.95
2023-02-21T16:23:24.797Z,98277.29
2023-02-21T16:26:14.940Z,98280.98
2023-02-21T16:29:36.917Z,98283.75
2023-02-21T16:32:51.472Z,98294.84
2023-02-21T16:35:25.719Z,98295.23
2023-02-21T16:37:58.606Z,98302.19
2023-02-21T16:40:55.773Z,98304.27
2023-02-21T16:43:54.598Z,98311.63
2023-02-21T16:49:38.702Z,98331.54
2023-02-21T16:56:07.345Z,98352.68
2023-02-21T16:59:00.573Z,98363.36
2023-02-21T17:02:19.605Z,98367.32
2023-02-21T17:05:03.581Z,98373.45
2023-02-21T17:07:42.977Z,98371.39
2023-02-21T17:10:32.307Z,98377.88
2023-02-21T17:13:03.936Z,98370.86
2023-02-21T17:15:33.982Z,98366.86
2023-02-21T17:18:05.322Z,98370.66
2023-02-21T17:21:09.996Z,98375.20
2023-02-21T17:23:48.150Z,98376.62
2023-02-21T17:26:17.567Z,98383.68
2023-02-21T17:29:21.882Z,98384.29
2023-02-21T17:31:59.076Z,98386.73
2023-02-21T17:34:39.384Z,98394.33
2023-02-21T17:37:12.142Z,98401.38
2023-02-21T17:39:41.156Z,98409.79
2023-02-21T17:42:10.600Z,98416.69
2023-02-21T17:44:49.964Z,98414.64
2023-02-21T17:47:38.708Z,98415.79
2023-02-21T17:50:09.630Z,98417.36
2023-02-21T17:58:47.580Z,98437.07
2023-02-21T18:04:48.929Z,98459.93
2023-02-21T18:07:21.193Z,98461.95
2023-02-21T18:10:10.996Z,98460.12
2023-02-21T18:12:51.290Z,98466.75
2023-02-21T18:16:50.225Z,98470.87
2023-02-21T18:19:34.188Z,98477.01
2023-02-21T18:22:12.906Z,98481.00
2023-02-21T18:24:55.608Z,98488.89
2023-02-21T18:27:25.720Z,98494.45
2023-02-21T18:29:56.496Z,98496.30
2023-02-21T18:32:54.366Z,98503.48
2023-02-21T18:35:28.398Z,98506.29
2023-02-21T18:38:13.450Z,98504.70
2023-02-21T18:41:12.078Z,98511.70
2023-02-21T18:44:03.736Z,98518.20
2023-02-21T18:46:38.794Z,98511.00
2023-02-21T18:49:47.222Z,98517.63
2023-02-21T18:52:22.062Z,98516.94
2023-02-21T18:54:57.112Z,98526.06
2023-02-21T18:57:32.392Z,98532.18
2023-02-21T19:00:11.094Z,98535.15
2023-02-21T19:03:06.679Z,98544.39
2023-02-21T19:09:57.226Z,98554.84
2023-02-21T19:12:53.420Z,98557.85
2023-02-21T19:15:44.440Z,98562.44
2023-02-21T19:19:05.614Z,98568.89
2023-02-21T19:21:50.737Z,98575.30
2023-02-21T19:24:43.171Z,98588.48
2023-02-21T19:27:47.086Z,98592.52
2023-02-21T19:30:35.761Z,98601.59
2023-02-21T19:33:12.827Z,98603.84
2023-02-21T19:35:46.724Z,98606.70
2023-02-21T19:38:40.394Z,98611.34
2023-02-21T19:41:21.779Z,98613.70
2023-02-21T19:43:52.455Z,98627.14
2023-02-21T19:46:29.838Z,98630.81
2023-02-21T19:49:14.876Z,98634.19
2023-02-21T19:52:30.867Z,98638.80
2023-02-21T19:55:04.878Z,98648.73
2023-02-21T19:58:22.144Z,98657.34
2023-02-21T20:01:35.528Z,98671.87
2023-02-21T20:04:26.859Z,98678.16
2023-02-21T20:07:08.230Z,98680.14
2023-02-21T20:09:56.677Z,98691.11
2023-02-21T20:13:09.219Z,98697.21
2023-02-21T20:16:22.854Z,98701.91
2023-02-21T20:19:47.521Z,98705.70
2023-02-21T20:23:23.877Z,98711.20
2023-02-21T20:26:04.463Z,98719.44
2023-02-21T20:29:04.353Z,98726.25
2023-02-21T20:32:11.199Z,98733.35
2023-02-21T20:34:46.926Z,98737.09
2023-02-21T20:38:21.105Z,98746.81
2023-02-21T20:41:23.995Z,98750.64
2023-02-21T20:44:30.230Z,98759.98
2023-02-21T20:47:36.436Z,98765.10
2023-02-21T20:50:20.818Z,98771.16
2023-02-21T20:53:48.336Z,98773.55
2023-02-21T20:56:45.466Z,98777.09
2023-02-21T20:59:57.199Z,98781.55
2023-02-21T21:03:07.822Z,98788.48
2023-02-21T21:06:11.975Z,98787.14
2023-02-21T21:09:34.647Z,98793.81
2023-02-21T21:12:29.535Z,98795.80
2023-02-21T21:15:12.550Z,98799.67
2023-02-21T21:17:57.069Z,98803.48
2023-02-21T21:20:41.166Z,98808.17
2023-02-21T21:23:14.275Z,98812.60
2023-02-21T21:26:22.310Z,98816.00
2023-02-21T21:29:25.169Z,98821.14
2023-02-21T21:32:10.855Z,98827.02
2023-02-21T21:35:15.248Z,98829.41
2023-02-21T21:38:27.207Z,98834.25
2023-02-21T21:41:23.487Z,98844.21
2023-02-21T21:44:02.867Z,98848.51
2023-02-21T21:47:02.436Z,98854.45
2023-02-21T21:49:55.561Z,98863.17
2023-02-21T21:53:11.437Z,98864.55
2023-02-21T21:56:20.280Z,98867.47
2023-02-21T21:59:27.348Z,98876.90
2023-02-21T22:02:22.935Z,98876.33
2023-02-21T22:05:30.564Z,98883.23
2023-02-21T22:08:21.273Z,98891.23
2023-02-21T22:11:10.866Z,98898.12
2023-02-21T22:13:47.112Z,98910.74
2023-02-21T22:16:25.127Z,98910.27
2023-02-21T22:19:16.022Z,98914.95
2023-02-21T22:22:02.608Z,98922.48
2023-02-21T22:25:12.330Z,98924.89
2023-02-21T22:28:34.418Z,98932.80
2023-02-21T22:31:24.101Z,98942.09
2023-02-21T22:34:05.167Z,98948.24
2023-02-21T22:37:15.546Z,98955.77
2023-02-21T22:40:05.572Z,98963.69
2023-02-21T22:43:42.501Z,98965.42
2023-02-21T22:47:00.856Z,98968.20
2023-02-21T22:49:37.987Z,98972.45
2023-02-21T22:52:29.664Z,98972.55
2023-02-21T22:55:37.266Z,98987.43
2023-02-21T22:58:30.781Z,98988.71
2023-02-21T23:01:13.079Z,98995.70
2023-02-21T23:04:26.157Z,99004.68
2023-02-21T23:07:04.909Z,99012.52
2023-02-21T23:09:43.885Z,99020.02
2023-02-21T23:12:30.306Z,99029.50
2023-02-21T23:15:18.577Z,99038.63
2023-02-21T23:18:20.896Z,99043.94
2023-02-21T23:21:16.086Z,99049.84
2023-02-21T23:23:53.247Z,99056.93
2023-02-21T23:26:35.455Z,99064.31
2023-02-21T23:29:58.473Z,99065.23
2023-02-21T23:32:50.957Z,99077.77
2023-02-21T23:36:24.145Z,99084.74
2023-02-21T23:38:58.699Z,99094.22
2023-02-21T23:41:34.650Z,99102.21
2023-02-21T23:44:51.415Z,99098.42
2023-02-21T23:47:55.516Z,99103.35
2023-02-21T23:50:37.463Z,99107.81
2023-02-21T23:53:32.440Z,99107.48
2023-02-21T23:56:07.621Z,99109.73
2023-02-21T23:59:46.273Z,99118.05
